メインページ
METAR-TAF:

METAR-TAF

空港 :

大島空港

新居大島, 日本

緯度: 34-47N, 経度: 139-22E, 海抜: 38m

現時点の気象観測

当レポートは2時間36分前の08:00(UTC)に作成
北東の風 14kt
気温 16°C
湿度 100%
気圧 1009 hPa
視程: 2000m
高度200ftの雲はほとんどない
高度300ftの千切れ雲あり
高度1000ftの千切れ雲あり
雨, 靄,

METAR: RJTO 240800Z 05014KT 2000 RA BR FEW002 BKN003 BKN010 16/16 Q1009

時間: 19:36 (10:36 UTC)


TAF: 見つかりません

4,000以上の空港の気象観測と天気予報(METAR報とTAF報)

利用可能な観測所は地図上に黄色い丸と赤い丸で示す。

丸の上にカーソルを重ねると観測所名を参照できる。

次にクリックすると気象観測と天気予報を参照できる。

マップの切り替え:黒色「×」印の緑ボタンをクリックして拡大、「-」印の緑ボタンをクリックして縮小、緑色の三角印をクリックして隣りの地図に切り替え


METAR-TAF: